Time;durP1;ratioP1;P1;durP2;ratioP2;P2;SDS_P1;SDS_P2;PMS_P1;PMS_P2;Temp;Humidity;BMP_temperature;BMP_pressure;BME280_temperature;BME280_humidity;BME280_pressure;Samples;Min_cycle;Max_cycle;Signal;HPM_P1;HPM_P2
2021/05/06 00:14:30;;;;;;;1.73;0.47;;;5.80;99.90;;;;;;10456430;28;20134;-60
2021/05/06 00:33:10;;;;;;;0.98;0.40;;;5.70;99.90;;;;;;10455141;28;20110;-61
2021/05/06 00:38:15;;;;;;;2.67;1.08;;;5.80;99.90;;;;;;10457469;28;20058;-61
2021/05/06 00:43:50;;;;;;;1.63;0.60;;;5.80;99.90;;;;;;10433449;28;20642;-60
2021/05/06 01:15:07;;;;;;;4.07;0.80;;;5.90;99.90;;;;;;10431440;28;20040;-60
2021/05/06 01:20:09;;;;;;;1.35;0.65;;;5.80;99.90;;;;;;10452639;28;20051;-60
2021/05/06 01:25:12;;;;;;;0.98;0.82;;;5.70;99.90;;;;;;10449527;28;20041;-60
2021/05/06 01:30:29;;;;;;;2.40;0.60;;;5.70;99.90;;;;;;10451139;28;20048;-61
2021/05/06 01:35:52;;;;;;;1.15;0.70;;;5.80;99.90;;;;;;10455635;28;20044;-60
2021/05/06 02:02:08;;;;;;;3.28;2.97;;;5.70;99.90;;;;;;10336055;28;20537;-61
2021/05/06 02:07:09;;;;;;;1.42;0.52;;;5.60;99.90;;;;;;10255545;28;20040;-60
2021/05/06 02:12:11;;;;;;;2.47;0.70;;;5.60;99.90;;;;;;10454145;28;20098;-60
2021/05/06 02:17:12;;;;;;;1.17;0.50;;;5.60;99.90;;;;;;10447899;28;20490;-60
2021/05/06 02:22:16;;;;;;;3.05;0.63;;;5.60;99.90;;;;;;10454638;28;20139;-60
2021/05/06 02:27:18;;;;;;;1.58;0.50;;;5.60;99.90;;;;;;10451936;28;20380;-60
2021/05/06 02:32:20;;;;;;;2.45;0.80;;;5.60;99.90;;;;;;10450703;28;20498;-60
2021/05/06 02:37:22;;;;;;;4.22;0.70;;;5.60;99.90;;;;;;10433274;28;20049;-60
2021/05/06 02:42:25;;;;;;;1.85;0.80;;;5.60;99.90;;;;;;10452173;28;20048;-62
2021/05/06 02:47:27;;;;;;;1.85;0.52;;;5.60;99.90;;;;;;10450786;28;20809;-60
2021/05/06 02:52:35;;;;;;;1.10;0.70;;;5.60;99.90;;;;;;10448712;28;20425;-60
2021/05/06 02:57:39;;;;;;;1.40;0.70;;;5.60;99.90;;;;;;10449810;28;20059;-59
2021/05/06 03:02:50;;;;;;;1.85;0.88;;;5.60;99.90;;;;;;10448260;28;20628;-63
2021/05/06 03:08:02;;;;;;;2.95;1.63;;;5.60;99.90;;;;;;10449737;28;20044;-60
2021/05/06 03:13:57;;;;;;;2.50;0.80;;;5.50;99.90;;;;;;10447024;28;20052;-60
2021/05/06 03:23:45;;;;;;;1.75;0.60;;;5.30;99.90;;;;;;10404142;28;20098;-60
2021/05/06 03:28:57;;;;;;;1.77;0.68;;;5.30;99.90;;;;;;10447286;28;20551;-60
2021/05/06 04:38:06;;;;;;;1.98;0.82;;;5.40;99.90;;;;;;10456407;28;20044;-61
2021/05/06 04:43:57;;;;;;;4.70;1.20;;;5.40;99.90;;;;;;10456544;28;20049;-60
2021/05/06 04:54:16;;;;;;;3.20;1.02;;;5.50;99.90;;;;;;10455432;28;20047;-61
2021/05/06 05:03:17;;;;;;;1.60;1.20;;;5.50;99.90;;;;;;10400810;28;20049;-60
2021/05/06 05:04:48;;;;;;;3.70;1.30;;;5.60;99.90;;;;;;10406202;28;20118;-59
2021/05/06 05:10:11;;;;;;;5.63;0.98;;;5.70;99.90;;;;;;10458497;28;20059;-59
2021/05/06 05:20:45;;;;;;;2.15;1.15;;;5.80;99.90;;;;;;10458056;28;20048;-59
2021/05/06 05:25:49;;;;;;;5.60;1.38;;;6.00;99.90;;;;;;10402647;28;20040;-59
2021/05/06 05:30:50;;;;;;;3.50;1.25;;;6.00;99.90;;;;;;10455023;28;20105;-58
2021/05/06 05:41:14;;;;;;;3.75;1.10;;;6.00;99.90;;;;;;10450654;28;20049;-58
2021/05/06 05:56:55;;;;;;;5.35;2.25;;;6.10;99.90;;;;;;10458629;28;20048;-59
2021/05/06 06:01:57;;;;;;;3.25;1.17;;;6.20;99.90;;;;;;10455310;28;20471;-59
2021/05/06 06:06:58;;;;;;;3.78;1.00;;;6.30;99.90;;;;;;10451780;28;20066;-59
2021/05/06 06:11:59;;;;;;;2.97;1.70;;;6.30;99.90;;;;;;10455451;28;20052;-59
2021/05/06 06:17:00;;;;;;;2.60;1.38;;;6.30;99.90;;;;;;10449360;28;20060;-60
2021/05/06 06:22:06;;;;;;;2.38;1.42;;;6.30;99.90;;;;;;10453235;28;20048;-58
2021/05/06 06:27:08;;;;;;;2.20;1.40;;;6.30;99.90;;;;;;10430987;28;20052;-58
2021/05/06 06:32:11;;;;;;;4.47;1.25;;;6.40;99.90;;;;;;10454448;28;20057;-59
2021/05/06 06:37:12;;;;;;;2.45;1.42;;;6.60;99.90;;;;;;10454043;28;20453;-59
2021/05/06 06:42:14;;;;;;;3.58;1.10;;;6.60;99.90;;;;;;10447166;28;20048;-60
2021/05/06 06:47:15;;;;;;;3.17;1.42;;;6.80;99.90;;;;;;10450177;28;20600;-61
2021/05/06 06:52:18;;;;;;;3.70;1.35;;;6.90;99.90;;;;;;10451835;28;20049;-61
2021/05/06 06:57:19;;;;;;;3.88;1.55;;;7.00;99.90;;;;;;10448842;28;20750;-60
2021/05/06 07:02:21;;;;;;;3.83;1.10;;;7.10;99.90;;;;;;10449021;28;20048;-60
2021/05/06 07:07:22;;;;;;;6.95;1.27;;;7.10;99.90;;;;;;10451192;28;20136;-61
2021/05/06 07:12:24;;;;;;;2.72;1.20;;;7.20;99.90;;;;;;10459652;28;20186;-60
2021/05/06 07:17:26;;;;;;;4.32;1.15;;;7.40;99.90;;;;;;10458562;28;20056;-61
2021/05/06 07:22:28;;;;;;;4.18;0.73;;;7.40;99.90;;;;;;10458233;28;20596;-60
2021/05/06 07:27:30;;;;;;;2.38;1.23;;;7.50;99.90;;;;;;10441683;28;20044;-60
2021/05/06 07:32:41;;;;;;;4.88;1.48;;;7.50;99.90;;;;;;10459103;28;20060;-61
2021/05/06 07:37:44;;;;;;;2.60;1.30;;;7.60;99.90;;;;;;10460759;28;20041;-61
2021/05/06 07:42:48;;;;;;;4.78;3.20;;;7.70;99.90;;;;;;10289686;28;20428;-61
2021/05/06 07:47:52;;;;;;;2.22;1.02;;;7.80;99.90;;;;;;10313025;28;20052;-60
2021/05/06 07:53:11;;;;;;;3.45;3.10;;;7.60;99.90;;;;;;10382445;28;20056;-60
2021/05/06 07:58:16;;;;;;;6.07;3.15;;;7.80;99.90;;;;;;10101820;28;20381;-61
2021/05/06 08:03:17;;;;;;;5.78;1.58;;;7.90;99.90;;;;;;10290910;28;20089;-61
2021/05/06 08:08:19;;;;;;;3.08;1.30;;;7.80;99.90;;;;;;10454258;28;20403;-61
2021/05/06 08:13:21;;;;;;;3.10;1.23;;;7.80;99.90;;;;;;10458203;28;20068;-61
2021/05/06 08:18:24;;;;;;;3.35;1.33;;;7.90;99.90;;;;;;10455389;28;20568;-62
2021/05/06 08:23:25;;;;;;;2.25;0.90;;;7.90;99.90;;;;;;10455844;28;20057;-60
2021/05/06 08:28:26;;;;;;;1.05;0.75;;;8.00;99.90;;;;;;10456597;28;20593;-60
2021/05/06 08:33:28;;;;;;;3.03;0.93;;;8.00;99.90;;;;;;10456080;28;20055;-60
2021/05/06 08:38:29;;;;;;;5.88;0.93;;;8.70;99.90;;;;;;10454031;28;20183;-60
2021/05/06 08:43:35;;;;;;;3.53;0.98;;;8.90;99.90;;;;;;10454387;28;20049;-60
2021/05/06 08:48:37;;;;;;;3.10;0.98;;;9.10;99.90;;;;;;10455066;28;20460;-60
2021/05/06 08:53:41;;;;;;;7.80;2.38;;;8.80;99.90;;;;;;10454158;28;20049;-61
2021/05/06 08:58:42;;;;;;;3.45;1.00;;;9.00;99.90;;;;;;10454271;28;20044;-61
2021/05/06 09:03:43;;;;;;;2.42;1.00;;;9.40;99.90;;;;;;10451706;28;20068;-61
2021/05/06 09:08:51;;;;;;;7.28;1.45;;;9.60;99.90;;;;;;10456462;28;20036;-60
2021/05/06 09:14:07;;;;;;;3.78;0.90;;;10.10;99.90;;;;;;10457481;28;20513;-60
2021/05/06 09:19:12;;;;;;;5.00;1.00;;;10.30;98.00;;;;;;10451687;28;20426;-60
2021/05/06 09:24:25;;;;;;;2.63;1.25;;;10.10;98.80;;;;;;10453780;28;20485;-60
2021/05/06 09:29:42;;;;;;;4.18;1.10;;;10.30;97.20;;;;;;10457099;28;20044;-60
2021/05/06 09:34:45;;;;;;;3.72;0.82;;;10.10;97.60;;;;;;10401847;28;20540;-60
2021/05/06 09:39:59;;;;;;;2.30;0.88;;;10.60;95.00;;;;;;10459182;28;20049;-60
2021/05/06 09:45:00;;;;;;;2.83;0.85;;;10.70;93.20;;;;;;10451118;28;20376;-61
2021/05/06 09:50:01;;;;;;;3.13;0.88;;;10.90;91.30;;;;;;10450664;28;20041;-60
2021/05/06 09:55:02;;;;;;;5.00;1.23;;;11.50;90.60;;;;;;10439442;28;20041;-61
2021/05/06 10:00:14;;;;;;;3.00;0.98;;;11.30;87.70;;;;;;10450691;28;20065;-60
2021/05/06 10:05:16;;;;;;;4.07;1.05;;;11.80;90.50;;;;;;10413847;28;20111;-60
2021/05/06 10:10:17;;;;;;;1.60;0.98;;;11.10;86.90;;;;;;10455840;28;20115;-60
2021/05/06 10:15:19;;;;;;;4.28;0.90;;;11.50;89.10;;;;;;10454603;28;20079;-61
2021/05/06 10:20:23;;;;;;;2.42;1.10;;;11.60;88.70;;;;;;10453818;28;20048;-61
2021/05/06 10:25:29;;;;;;;3.58;1.10;;;11.30;87.10;;;;;;10457962;28;20037;-62
2021/05/06 10:30:31;;;;;;;2.83;1.67;;;11.40;89.80;;;;;;10455173;28;20047;-61
2021/05/06 10:35:32;;;;;;;2.45;0.85;;;11.30;87.60;;;;;;10452334;28;20045;-62
2021/05/06 10:40:36;;;;;;;5.03;1.15;;;11.60;89.20;;;;;;10455215;28;20048;-62
2021/05/06 10:45:37;;;;;;;2.80;1.00;;;12.10;86.80;;;;;;10453087;28;20176;-61
2021/05/06 10:50:40;;;;;;;2.15;1.02;;;12.10;88.20;;;;;;10429754;28;20106;-61
2021/05/06 10:55:50;;;;;;;5.20;1.40;;;12.70;84.70;;;;;;10456938;28;20056;-61
2021/05/06 11:01:04;;;;;;;4.50;1.08;;;12.60;86.60;;;;;;10450329;28;20057;-60
2021/05/06 11:06:08;;;;;;;2.75;1.02;;;12.50;85.00;;;;;;10433344;28;20060;-60
2021/05/06 11:11:09;;;;;;;5.30;0.90;;;12.00;85.50;;;;;;10452106;28;20816;-60
2021/05/06 11:16:17;;;;;;;3.35;0.93;;;11.70;84.30;;;;;;10451016;28;20049;-59
2021/05/06 11:21:31;;;;;;;4.45;1.00;;;11.80;82.30;;;;;;10453106;28;20072;-60
2021/05/06 11:26:33;;;;;;;1.85;1.38;;;11.90;85.70;;;;;;10453506;28;20102;-60
2021/05/06 11:31:47;;;;;;;1.63;0.88;;;11.70;83.50;;;;;;10446517;28;20068;-59
2021/05/06 11:36:49;;;;;;;2.95;1.27;;;11.00;86.30;;;;;;10451486;28;20055;-60
2021/05/06 11:41:50;;;;;;;2.88;0.98;;;11.80;86.40;;;;;;10433391;28;20060;-60
2021/05/06 11:46:51;;;;;;;4.03;0.80;;;11.90;83.50;;;;;;10447891;28;20047;-60
2021/05/06 11:51:53;;;;;;;7.82;1.58;;;12.50;84.90;;;;;;10448290;28;20550;-60
2021/05/06 11:57:01;;;;;;;2.22;0.70;;;12.40;82.00;;;;;;10455940;28;20126;-60
2021/05/06 12:02:06;;;;;;;3.00;0.73;;;12.10;82.00;;;;;;10458465;28;20056;-60
2021/05/06 12:07:16;;;;;;;1.95;0.88;;;12.40;82.30;;;;;;10458474;28;20055;-60
2021/05/06 12:12:25;;;;;;;1.67;0.90;;;12.40;80.60;;;;;;10458228;28;20049;-60
2021/05/06 12:17:27;;;;;;;5.72;1.00;;;12.60;78.70;;;;;;10459712;28;20513;-60
2021/05/06 12:22:28;;;;;;;1.50;1.00;;;12.80;80.00;;;;;;10456274;28;20092;-60
2021/05/06 12:27:31;;;;;;;2.25;0.88;;;12.70;77.90;;;;;;10460378;28;20049;-60
2021/05/06 12:32:33;;;;;;;2.53;0.90;;;12.40;82.50;;;;;;10458028;28;20061;-60
2021/05/06 12:37:37;;;;;;;1.20;0.68;;;12.80;79.90;;;;;;10456720;28;20045;-60
2021/05/06 12:42:39;;;;;;;1.50;0.70;;;12.10;81.40;;;;;;10454342;28;20064;-60
2021/05/06 12:47:50;;;;;;;2.17;0.60;;;12.80;80.80;;;;;;10456815;28;20052;-60
2021/05/06 12:53:11;;;;;;;2.08;0.70;;;12.90;77.40;;;;;;10452266;28;20134;-60
2021/05/06 12:58:20;;;;;;;2.28;1.00;;;12.20;80.30;;;;;;10434969;28;20052;-60
2021/05/06 13:03:33;;;;;;;1.55;0.73;;;12.10;82.20;;;;;;10450306;28;20085;-60
2021/05/06 13:08:47;;;;;;;3.03;0.90;;;12.10;84.20;;;;;;10451175;28;20487;-60
2021/05/06 13:13:50;;;;;;;2.33;0.88;;;11.80;83.60;;;;;;10401448;28;20059;-61
2021/05/06 13:18:59;;;;;;;4.10;1.20;;;12.10;84.30;;;;;;10453490;28;20105;-61
2021/05/06 13:24:02;;;;;;;3.25;1.20;;;11.70;84.00;;;;;;10453823;28;20113;-61
2021/05/06 13:29:14;;;;;;;1.52;1.00;;;11.50;86.60;;;;;;10453224;28;20070;-60
2021/05/06 13:34:20;;;;;;;2.40;1.42;;;11.20;90.40;;;;;;10404742;28;20040;-62
2021/05/06 13:39:21;;;;;;;4.20;1.27;;;11.40;91.50;;;;;;10449312;28;20600;-62
2021/05/06 13:44:25;;;;;;;8.43;1.48;;;10.90;92.40;;;;;;10440046;28;20658;-59
2021/05/06 13:49:29;;;;;;;2.35;1.45;;;10.80;94.30;;;;;;10448679;28;20044;-60
2021/05/06 13:54:31;;;;;;;1.80;1.52;;;10.50;93.80;;;;;;10451270;28;20048;-59
2021/05/06 13:59:32;;;;;;;2.33;1.17;;;10.60;97.90;;;;;;10433192;28;20395;-60
2021/05/06 14:04:34;;;;;;;4.05;1.60;;;10.50;98.20;;;;;;10438026;28;20728;-59
2021/05/06 14:09:35;;;;;;;4.68;1.65;;;10.40;99.90;;;;;;10451946;28;20135;-59
2021/05/06 14:14:37;;;;;;;5.15;2.30;;;10.40;99.90;;;;;;10450763;28;20048;-59
2021/05/06 14:19:38;;;;;;;3.97;2.50;;;9.90;99.90;;;;;;10456283;28;20048;-58
2021/05/06 14:24:39;;;;;;;8.35;3.33;;;9.70;99.90;;;;;;10454600;28;20049;-59
2021/05/06 14:29:40;;;;;;;2.75;1.90;;;9.80;99.90;;;;;;10448902;28;20388;-58
2021/05/06 14:34:41;;;;;;;3.35;2.05;;;9.80;99.90;;;;;;10450317;28;20110;-59
2021/05/06 14:39:43;;;;;;;3.60;1.70;;;10.30;99.90;;;;;;10452750;28;20102;-61
2021/05/06 14:44:44;;;;;;;4.38;1.75;;;10.20;99.90;;;;;;10448166;28;20059;-61
2021/05/06 14:49:45;;;;;;;4.53;2.08;;;10.30;99.90;;;;;;10434598;28;20956;-61
2021/05/06 14:54:47;;;;;;;5.97;2.33;;;9.90;99.90;;;;;;10455158;28;20056;-60
2021/05/06 14:59:48;;;;;;;4.20;1.95;;;9.60;99.90;;;;;;10447252;28;20103;-60
2021/05/06 15:04:49;;;;;;;5.68;2.40;;;9.50;99.90;;;;;;10450752;28;20064;-61
2021/05/06 15:09:51;;;;;;;5.60;2.35;;;9.40;99.90;;;;;;10454815;28;20087;-61
2021/05/06 15:14:52;;;;;;;7.35;2.28;;;9.00;99.90;;;;;;10451343;28;20048;-60
2021/05/06 15:19:53;;;;;;;4.00;1.88;;;9.10;99.90;;;;;;10451339;28;20105;-60
2021/05/06 15:24:55;;;;;;;6.60;1.90;;;9.00;99.90;;;;;;10449632;28;20057;-60
2021/05/06 15:29:56;;;;;;;5.85;2.00;;;9.00;99.90;;;;;;10453925;28;20670;-60
2021/05/06 15:35:00;;;;;;;3.58;1.77;;;9.00;99.90;;;;;;10458243;28;20572;-60
2021/05/06 15:40:03;;;;;;;5.28;1.88;;;8.80;99.90;;;;;;10458183;28;20063;-60
2021/05/06 15:45:07;;;;;;;6.70;2.40;;;9.00;99.90;;;;;;10457895;28;20098;-61
2021/05/06 15:50:11;;;;;;;6.20;2.47;;;8.90;99.90;;;;;;10435116;28;20048;-60
2021/05/06 15:55:13;;;;;;;6.18;2.40;;;9.00;99.90;;;;;;10453392;28;20037;-60
2021/05/06 16:00:19;;;;;;;5.93;2.72;;;9.10;99.90;;;;;;10459757;28;20052;-61
2021/05/06 16:05:28;;;;;;;6.03;3.47;;;9.10;99.90;;;;;;10454046;28;20057;-61
2021/05/06 16:10:29;;;;;;;5.30;2.33;;;9.00;99.90;;;;;;10457588;28;20049;-61
2021/05/06 16:15:31;;;;;;;8.98;3.63;;;8.90;99.90;;;;;;10460055;28;20107;-60
2021/05/06 16:20:39;;;;;;;4.00;2.90;;;8.80;99.90;;;;;;10458051;28;20668;-60
2021/05/06 16:25:42;;;;;;;7.43;3.55;;;8.70;99.90;;;;;;10454787;28;20056;-61
2021/05/06 16:30:44;;;;;;;8.57;3.80;;;8.70;99.90;;;;;;10456464;28;20036;-60
2021/05/06 16:41:10;;;;;;;11.48;5.70;;;8.70;99.90;;;;;;10457398;28;20048;-61
2021/05/06 16:46:14;;;;;;;12.35;4.80;;;8.70;99.90;;;;;;10458712;28;20056;-61
2021/05/06 16:51:15;;;;;;;7.10;4.57;;;8.60;99.90;;;;;;10453466;28;20483;-61
2021/05/06 16:56:20;;;;;;;7.20;3.80;;;8.60;99.90;;;;;;10456146;28;20045;-60
2021/05/06 17:01:21;;;;;;;10.13;5.28;;;8.50;99.90;;;;;;10455560;28;20056;-60
2021/05/06 17:06:25;;;;;;;9.30;5.38;;;8.50;99.90;;;;;;10457204;28;20092;-60
2021/05/06 17:11:26;;;;;;;7.38;4.05;;;8.40;99.90;;;;;;10455182;28;20063;-61
2021/05/06 17:16:27;;;;;;;10.55;4.25;;;8.40;99.90;;;;;;10457267;28;20048;-61
2021/05/06 17:21:29;;;;;;;4.90;2.45;;;8.40;99.90;;;;;;10454366;28;20064;-60
2021/05/06 17:26:31;;;;;;;5.18;2.08;;;8.30;99.90;;;;;;10453809;28;20573;-61
2021/05/06 17:31:32;;;;;;;5.18;2.25;;;8.10;99.90;;;;;;10455054;28;20055;-60
2021/05/06 17:36:33;;;;;;;7.90;2.97;;;8.20;99.90;;;;;;10454811;28;20394;-61
2021/05/06 17:41:35;;;;;;;9.98;3.78;;;8.20;99.90;;;;;;10454350;28;20061;-61
2021/05/06 17:46:36;;;;;;;6.93;3.45;;;7.80;99.90;;;;;;10459027;28;20044;-60
2021/05/06 17:51:38;;;;;;;8.18;4.13;;;7.70;99.90;;;;;;10450474;28;20041;-61
2021/05/06 17:56:39;;;;;;;10.77;4.80;;;7.70;99.90;;;;;;10451691;28;20060;-61
2021/05/06 18:01:40;;;;;;;8.10;3.88;;;7.90;99.90;;;;;;10452699;28;20588;-61
2021/05/06 18:06:42;;;;;;;11.40;4.25;;;8.00;99.90;;;;;;10452528;28;20037;-61
2021/05/06 18:17:13;;;;;;;10.32;5.35;;;7.90;99.90;;;;;;10438692;28;20536;-61
2021/05/06 18:22:15;;;;;;;7.53;3.97;;;7.90;99.90;;;;;;10433908;28;20040;-60
2021/05/06 18:27:18;;;;;;;9.13;4.00;;;7.70;99.90;;;;;;10453493;28;20052;-60
2021/05/06 18:32:19;;;;;;;6.95;4.20;;;7.70;99.90;;;;;;10449530;28;20048;-60
2021/05/06 18:37:22;;;;;;;8.85;4.32;;;7.60;99.90;;;;;;10436435;28;20103;-60
2021/05/06 18:42:23;;;;;;;8.52;4.00;;;7.50;99.90;;;;;;10451537;28;20097;-61
2021/05/06 18:47:26;;;;;;;5.55;3.22;;;7.50;99.90;;;;;;10449413;28;20147;-61
2021/05/06 18:52:27;;;;;;;6.85;3.92;;;7.40;99.90;;;;;;10446987;28;20053;-61
2021/05/06 18:57:33;;;;;;;6.85;3.45;;;7.40;99.90;;;;;;10448193;28;20506;-63
2021/05/06 19:02:34;;;;;;;7.10;4.18;;;7.30;99.90;;;;;;10434962;28;20091;-64
2021/05/06 19:07:35;;;;;;;9.13;3.90;;;7.30;99.90;;;;;;10460809;28;20048;-63
2021/05/06 19:12:37;;;;;;;6.53;4.88;;;7.20;99.90;;;;;;10463248;28;20107;-64
2021/05/06 19:17:38;;;;;;;8.02;3.80;;;7.20;99.90;;;;;;10465781;28;20048;-64
2021/05/06 19:22:41;;;;;;;7.30;4.22;;;7.20;99.90;;;;;;10467707;28;20037;-63
2021/05/06 19:27:42;;;;;;;8.77;3.67;;;7.20;99.90;;;;;;10464683;28;20053;-64
2021/05/06 19:32:44;;;;;;;8.30;4.68;;;7.20;99.90;;;;;;10463722;28;20820;-64
2021/05/06 19:37:46;;;;;;;9.23;4.30;;;7.10;99.90;;;;;;10463805;28;20052;-63
2021/05/06 19:47:48;;;;;;;10.38;4.75;;;7.00;99.90;;;;;;10462988;28;20078;-64
2021/05/06 19:52:50;;;;;;;6.88;4.63;;;7.10;99.90;;;;;;10462588;28;20048;-63
2021/05/06 19:57:51;;;;;;;8.57;4.18;;;7.00;99.90;;;;;;10463289;28;20117;-63
2021/05/06 20:02:53;;;;;;;9.88;4.63;;;7.00;99.90;;;;;;10447691;28;20051;-63
2021/05/06 20:07:54;;;;;;;6.82;3.92;;;7.00;99.90;;;;;;10467474;28;20045;-63
2021/05/06 20:12:55;;;;;;;6.10;3.97;;;7.00;99.90;;;;;;10464656;28;20433;-62
2021/05/06 20:17:57;;;;;;;5.57;4.07;;;6.90;99.90;;;;;;10461058;28;20122;-62
2021/05/06 20:22:59;;;;;;;10.70;4.35;;;7.00;99.90;;;;;;10456008;28;20525;-62
2021/05/06 20:28:00;;;;;;;7.25;4.63;;;7.00;99.90;;;;;;10453580;28;20056;-62
2021/05/06 20:33:02;;;;;;;6.13;3.83;;;7.00;99.90;;;;;;10455588;28;20053;-62
2021/05/06 20:38:03;;;;;;;5.38;3.70;;;7.00;99.90;;;;;;10455406;28;20041;-62
2021/05/06 20:43:10;;;;;;;4.95;3.65;;;7.00;99.90;;;;;;10453042;28;20049;-62
2021/05/06 20:48:14;;;;;;;7.65;3.70;;;7.10;99.90;;;;;;10453455;28;20479;-62
2021/05/06 20:53:16;;;;;;;5.25;2.75;;;6.90;99.90;;;;;;10455340;28;20041;-62
2021/05/06 20:58:17;;;;;;;6.55;3.88;;;6.90;99.90;;;;;;10458486;28;20071;-62
2021/05/06 21:03:18;;;;;;;5.28;3.55;;;6.80;99.90;;;;;;10453494;28;20044;-63
2021/05/06 21:08:19;;;;;;;5.85;4.32;;;6.70;99.90;;;;;;10454671;28;20106;-62
2021/05/06 21:13:20;;;;;;;7.85;4.18;;;6.60;99.90;;;;;;10457556;28;20485;-62
2021/05/06 21:18:21;;;;;;;8.25;4.38;;;6.60;99.90;;;;;;10453772;28;20064;-62
2021/05/06 21:23:22;;;;;;;9.20;4.75;;;6.50;99.90;;;;;;10452783;28;20113;-62
2021/05/06 21:28:24;;;;;;;6.00;3.47;;;6.40;99.90;;;;;;10456822;28;20077;-62
2021/05/06 21:33:25;;;;;;;7.38;4.32;;;6.30;99.90;;;;;;10453809;28;20048;-62
2021/05/06 21:38:26;;;;;;;7.78;4.20;;;6.30;99.90;;;;;;10451644;28;20079;-62
2021/05/06 21:43:28;;;;;;;6.32;4.43;;;6.30;99.90;;;;;;10447953;28;20056;-62
2021/05/06 21:48:29;;;;;;;6.43;3.58;;;6.30;99.90;;;;;;10460010;28;20107;-62
2021/05/06 21:53:30;;;;;;;5.75;3.53;;;6.30;99.90;;;;;;10453994;28;20053;-62
2021/05/06 21:58:31;;;;;;;6.22;3.42;;;6.40;99.90;;;;;;10448248;28;20045;-62
2021/05/06 22:03:33;;;;;;;5.80;3.22;;;6.50;99.90;;;;;;10456100;28;20118;-62
2021/05/06 22:08:34;;;;;;;6.47;2.88;;;6.50;99.90;;;;;;10450084;28;20056;-62
2021/05/06 22:13:36;;;;;;;6.05;2.58;;;6.50;99.90;;;;;;10449343;28;20049;-62
2021/05/06 22:18:37;;;;;;;5.30;3.17;;;6.60;99.90;;;;;;10452834;28;20048;-62
2021/05/06 22:23:39;;;;;;;6.03;2.92;;;6.60;99.90;;;;;;10456660;28;20037;-62
2021/05/06 22:28:40;;;;;;;3.67;2.33;;;6.70;99.90;;;;;;10452025;28;20045;-62
2021/05/06 22:33:41;;;;;;;4.13;2.35;;;6.70;99.90;;;;;;10453914;28;20052;-62
2021/05/06 22:38:43;;;;;;;4.20;2.25;;;6.70;99.90;;;;;;10456506;28;20053;-62
2021/05/06 22:43:44;;;;;;;5.03;2.70;;;6.70;99.90;;;;;;10451541;28;20045;-62
2021/05/06 22:48:45;;;;;;;6.32;3.03;;;6.70;99.90;;;;;;10453816;28;20121;-63
2021/05/06 22:53:46;;;;;;;3.80;2.45;;;6.70;99.90;;;;;;10449293;28;20121;-62
2021/05/06 22:58:48;;;;;;;3.00;2.30;;;6.70;99.90;;;;;;10448718;28;20057;-61
2021/05/06 23:03:49;;;;;;;5.47;2.53;;;6.60;99.90;;;;;;10447976;28;20044;-61
2021/05/06 23:08:54;;;;;;;5.72;2.97;;;6.60;99.90;;;;;;10450068;28;20082;-62
2021/05/06 23:13:55;;;;;;;6.25;3.13;;;6.60;99.90;;;;;;10450816;28;20094;-61
2021/05/06 23:18:56;;;;;;;6.15;3.20;;;6.60;99.90;;;;;;10444391;28;20110;-61
2021/05/06 23:23:57;;;;;;;6.30;2.95;;;6.60;99.90;;;;;;10454194;28;20505;-62
2021/05/06 23:28:59;;;;;;;5.90;3.10;;;6.60;99.90;;;;;;10452944;28;20060;-61
2021/05/06 23:34:00;;;;;;;4.97;3.03;;;6.60;99.90;;;;;;10453450;28;20102;-62
2021/05/06 23:39:02;;;;;;;6.78;3.45;;;6.60;99.90;;;;;;10450586;28;20383;-62
2021/05/06 23:44:04;;;;;;;7.78;3.40;;;6.60;99.90;;;;;;10449633;28;20509;-61
2021/05/06 23:49:05;;;;;;;6.50;3.42;;;6.60;99.90;;;;;;10452484;28;20103;-61
2021/05/06 23:54:06;;;;;;;6.80;3.55;;;6.60;99.90;;;;;;10454486;28;20049;-62
2021/05/06 23:59:08;;;;;;;7.35;3.55;;;6.60;99.90;;;;;;10455074;28;20041;-61
